createdAt,value
2022-10-30T00:01:15.126Z,61.40
2022-10-30T00:03:42.330Z,40.47
2022-10-30T00:06:10.275Z,36.50
2022-10-30T00:08:37.537Z,33.87
2022-10-30T00:11:14.196Z,36.23
2022-10-30T00:13:44.805Z,30.53
2022-10-30T00:16:12.818Z,40.70
2022-10-30T00:18:42.422Z,34.27
2022-10-30T00:21:12.558Z,39.57
2022-10-30T00:23:41.395Z,33.57
2022-10-30T00:26:08.944Z,36.20
2022-10-30T00:28:36.204Z,33.57
2022-10-30T00:31:04.888Z,31.83
2022-10-30T00:33:32.539Z,31.60
2022-10-30T00:36:00.025Z,29.30
2022-10-30T00:38:27.355Z,32.53
2022-10-30T00:40:54.781Z,30.37
2022-10-30T00:43:29.669Z,31.93
2022-10-30T00:45:59.867Z,30.57
2022-10-30T00:48:30.242Z,31.87
2022-10-30T00:51:00.015Z,31.30
2022-10-30T00:53:28.177Z,40.27
2022-10-30T00:55:59.506Z,34.00
2022-10-30T00:58:50.110Z,32.50
2022-10-30T01:01:21.697Z,30.90
2022-10-30T01:03:53.032Z,31.90
2022-10-30T01:06:20.424Z,28.93
2022-10-30T01:08:48.561Z,32.10
2022-10-30T01:11:16.018Z,28.17
2022-10-30T01:13:47.670Z,26.60
2022-10-30T01:16:26.603Z,31.23
2022-10-30T01:19:13.813Z,35.47
2022-10-30T01:22:02.137Z,32.90
2022-10-30T01:24:49.618Z,29.77
2022-10-30T01:27:20.270Z,27.83
2022-10-30T01:30:17.481Z,28.53
2022-10-30T01:33:14.168Z,29.63
2022-10-30T01:35:48.162Z,32.87
2022-10-30T01:38:21.845Z,32.87
2022-10-30T01:40:48.966Z,30.20
2022-10-30T01:43:16.349Z,32.20
2022-10-30T01:46:04.871Z,31.23
2022-10-30T01:49:06.870Z,26.50
2022-10-30T01:51:39.694Z,34.60
2022-10-30T01:54:40.409Z,36.43
2022-10-30T01:57:52.111Z,30.67
2022-10-30T02:00:20.882Z,29.50
2022-10-30T02:02:50.424Z,35.37
2022-10-30T02:05:36.870Z,34.97
2022-10-30T02:08:04.361Z,36.10
2022-10-30T02:10:34.325Z,32.50
2022-10-30T02:13:02.506Z,34.17
2022-10-30T02:15:31.023Z,33.50
2022-10-30T02:17:58.770Z,34.47
2022-10-30T02:20:27.122Z,33.77
2022-10-30T02:22:59.061Z,36.87
2022-10-30T02:25:27.130Z,31.30
2022-10-30T02:27:54.365Z,35.57
2022-10-30T02:30:21.626Z,29.20
2022-10-30T02:32:49.070Z,30.80
2022-10-30T02:35:16.312Z,36.60
2022-10-30T02:37:43.603Z,30.73
2022-10-30T02:40:12.291Z,33.73
2022-10-30T02:42:39.719Z,29.83
2022-10-30T02:45:07.526Z,28.80
2022-10-30T02:47:34.767Z,29.00
2022-10-30T02:50:01.864Z,32.70
2022-10-30T02:52:29.035Z,29.57
2022-10-30T02:54:56.209Z,29.30
2022-10-30T02:57:23.365Z,30.33
2022-10-30T02:59:50.712Z,29.80
2022-10-30T03:02:17.896Z,32.30
2022-10-30T03:04:45.071Z,31.47
2022-10-30T03:07:12.261Z,32.37
2022-10-30T03:09:39.464Z,32.70
2022-10-30T03:12:06.903Z,33.70
2022-10-30T03:14:34.320Z,34.80
2022-10-30T03:17:01.736Z,34.50
2022-10-30T03:19:28.845Z,32.97
2022-10-30T03:21:56.196Z,31.47
2022-10-30T03:24:23.390Z,32.33
2022-10-30T03:26:50.563Z,32.23
2022-10-30T03:29:17.844Z,32.40
2022-10-30T03:31:44.976Z,30.70
2022-10-30T03:34:12.378Z,35.57
2022-10-30T03:36:39.733Z,39.73
2022-10-30T03:39:07.060Z,46.03
2022-10-30T03:41:34.549Z,50.80
2022-10-30T03:44:01.996Z,38.07
2022-10-30T03:46:31.059Z,38.50
2022-10-30T03:48:58.394Z,40.10
2022-10-30T03:51:25.685Z,51.60
2022-10-30T03:53:52.933Z,38.37
2022-10-30T03:56:20.200Z,33.73
2022-10-30T03:58:47.297Z,39.00
2022-10-30T04:01:14.506Z,31.07
2022-10-30T04:03:41.952Z,35.57
2022-10-30T04:06:10.284Z,36.57
2022-10-30T04:08:37.712Z,29.83
2022-10-30T04:11:05.277Z,60.77
2022-10-30T04:13:32.663Z,51.77
2022-10-30T04:15:59.917Z,50.10
2022-10-30T04:18:27.255Z,55.67
2022-10-30T04:20:54.534Z,45.60
2022-10-30T04:23:23.091Z,44.77
2022-10-30T04:25:50.366Z,41.63
2022-10-30T04:28:17.600Z,50.53
2022-10-30T04:30:47.245Z,110.30
2022-10-30T04:33:15.302Z,125.37
2022-10-30T04:35:42.937Z,111.20
2022-10-30T04:38:21.693Z,63.27
2022-10-30T04:40:49.119Z,58.10
2022-10-30T04:43:17.317Z,64.80
2022-10-30T04:45:45.333Z,52.00
2022-10-30T04:48:16.323Z,39.47
2022-10-30T04:50:44.169Z,33.20
2022-10-30T04:53:17.288Z,46.17
2022-10-30T04:55:44.887Z,40.17
2022-10-30T04:58:13.130Z,47.23
2022-10-30T05:00:40.650Z,58.43
2022-10-30T05:03:08.095Z,49.07
2022-10-30T05:05:35.378Z,34.40
2022-10-30T05:08:03.252Z,29.87
2022-10-30T05:10:30.574Z,34.10
2022-10-30T05:13:00.334Z,38.60
2022-10-30T05:15:27.534Z,38.83
2022-10-30T05:17:55.799Z,34.93
2022-10-30T05:20:23.225Z,33.70
2022-10-30T05:23:00.196Z,36.67
2022-10-30T05:25:28.458Z,34.17
2022-10-30T05:28:04.046Z,40.40
2022-10-30T05:30:33.598Z,27.37
2022-10-30T05:33:10.320Z,28.60
2022-10-30T05:35:38.305Z,30.80
2022-10-30T05:38:07.540Z,34.30
2022-10-30T05:40:36.089Z,34.43
2022-10-30T05:43:03.312Z,38.53
2022-10-30T05:45:30.636Z,38.47
2022-10-30T05:48:03.361Z,29.47
2022-10-30T05:50:31.326Z,28.30
2022-10-30T05:53:03.678Z,28.43
2022-10-30T05:55:31.517Z,24.23
2022-10-30T05:58:00.895Z,25.07
2022-10-30T06:00:31.689Z,24.80
2022-10-30T06:03:04.390Z,31.07
2022-10-30T06:05:34.563Z,33.47
2022-10-30T06:08:03.215Z,33.30
2022-10-30T06:10:30.613Z,25.47
2022-10-30T06:13:00.516Z,25.50
2022-10-30T06:15:29.380Z,25.17
2022-10-30T06:17:57.146Z,23.90
2022-10-30T06:20:27.204Z,26.80
2022-10-30T06:22:58.003Z,24.97
2022-10-30T06:25:26.245Z,27.73
2022-10-30T06:27:53.518Z,26.50
2022-10-30T06:30:22.078Z,25.50
2022-10-30T06:32:50.617Z,27.20
2022-10-30T06:35:18.411Z,23.40
2022-10-30T06:37:49.630Z,24.87
2022-10-30T06:40:17.725Z,29.47
2022-10-30T06:42:50.921Z,25.23
2022-10-30T06:45:19.717Z,25.20
2022-10-30T06:47:47.740Z,22.23
2022-10-30T06:50:18.140Z,25.40
2022-10-30T06:52:45.473Z,21.90
2022-10-30T06:55:13.056Z,19.50
2022-10-30T06:57:40.611Z,22.53
2022-10-30T07:00:09.144Z,21.60
2022-10-30T07:02:36.364Z,23.23
2022-10-30T07:05:03.780Z,24.20
2022-10-30T07:07:31.499Z,21.67
2022-10-30T07:10:02.079Z,21.17
2022-10-30T07:12:29.317Z,25.43
2022-10-30T07:14:56.660Z,20.37
2022-10-30T07:17:24.020Z,19.97
2022-10-30T07:19:51.551Z,25.30
2022-10-30T07:22:18.927Z,21.53
2022-10-30T07:24:46.057Z,19.70
2022-10-30T07:27:28.629Z,23.87
2022-10-30T07:29:55.861Z,24.13
2022-10-30T07:32:23.126Z,27.50
2022-10-30T07:34:50.582Z,20.93
2022-10-30T07:37:17.973Z,16.50
2022-10-30T07:39:45.286Z,19.30
2022-10-30T07:42:12.770Z,22.60
2022-10-30T07:44:40.037Z,20.33
2022-10-30T07:47:07.570Z,21.40
2022-10-30T07:49:37.960Z,24.20
2022-10-30T07:52:06.306Z,17.17
2022-10-30T07:54:33.927Z,21.20
2022-10-30T07:57:01.488Z,31.10
2022-10-30T07:59:28.986Z,19.97
2022-10-30T08:01:56.497Z,22.27
2022-10-30T08:04:24.003Z,24.67
2022-10-30T08:06:51.314Z,33.90
2022-10-30T08:09:21.345Z,19.87
2022-10-30T08:11:49.292Z,17.63
2022-10-30T08:14:20.169Z,21.43
2022-10-30T08:16:48.674Z,13.57
2022-10-30T08:19:16.002Z,13.67
2022-10-30T08:21:43.938Z,16.47
2022-10-30T08:24:11.785Z,21.90
2022-10-30T08:26:39.189Z,11.53
2022-10-30T08:29:06.920Z,11.60
2022-10-30T08:31:34.189Z,11.47
2022-10-30T08:34:01.602Z,12.90
2022-10-30T08:36:30.004Z,12.90
2022-10-30T08:38:58.875Z,13.83
2022-10-30T08:41:26.166Z,20.47
2022-10-30T08:43:53.922Z,13.10
2022-10-30T08:46:21.221Z,11.63
2022-10-30T08:48:48.751Z,14.83
2022-10-30T08:51:16.177Z,11.83
2022-10-30T08:53:43.549Z,12.27
2022-10-30T08:56:13.917Z,11.77
2022-10-30T08:58:41.191Z,11.27
2022-10-30T09:01:08.680Z,15.75
2022-10-30T09:03:37.440Z,11.48
2022-10-30T09:06:05.108Z,6.35
2022-10-30T09:08:32.685Z,14.02
2022-10-30T09:11:00.219Z,8.70
2022-10-30T09:13:28.230Z,10.00
2022-10-30T09:15:59.637Z,10.77
2022-10-30T09:18:27.272Z,9.60
2022-10-30T09:20:54.815Z,7.68
2022-10-30T09:23:22.643Z,6.85
2022-10-30T09:25:49.989Z,8.45
2022-10-30T09:28:17.351Z,8.32
2022-10-30T09:30:45.315Z,42.95
2022-10-30T09:33:12.881Z,8.90
2022-10-30T09:35:40.340Z,8.90
2022-10-30T09:38:07.574Z,10.60
2022-10-30T09:40:55.242Z,15.48
2022-10-30T09:43:44.762Z,12.10
2022-10-30T09:46:31.511Z,12.23
2022-10-30T09:49:02.003Z,8.43
2022-10-30T09:51:56.298Z,10.85
2022-10-30T09:54:50.823Z,11.70
2022-10-30T09:57:33.922Z,13.57
2022-10-30T10:00:07.329Z,7.60
2022-10-30T10:02:37.542Z,14.00
2022-10-30T10:05:14.893Z,9.77
2022-10-30T10:07:52.209Z,9.95
2022-10-30T10:10:52.780Z,11.30
2022-10-30T10:13:42.569Z,8.75
2022-10-30T10:16:27.257Z,12.95
2022-10-30T10:19:01.374Z,8.13
2022-10-30T10:21:30.119Z,9.80
2022-10-30T10:24:01.278Z,7.47
2022-10-30T10:26:55.122Z,9.20
2022-10-30T10:29:41.501Z,11.80
2022-10-30T10:32:57.871Z,6.30
2022-10-30T10:35:44.037Z,9.68
2022-10-30T10:38:38.805Z,11.85
2022-10-30T10:41:31.878Z,7.95
2022-10-30T10:44:28.422Z,5.70
2022-10-30T10:47:09.108Z,9.95
2022-10-30T10:50:09.941Z,8.85
2022-10-30T10:52:52.090Z,12.88
2022-10-30T10:55:26.835Z,12.77
2022-10-30T10:57:59.152Z,12.18
2022-10-30T11:00:30.042Z,13.43
2022-10-30T11:03:10.539Z,13.73
2022-10-30T11:06:07.522Z,11.27
2022-10-30T11:08:38.285Z,16.15
2022-10-30T11:11:07.586Z,10.60
2022-10-30T11:13:43.797Z,11.70
2022-10-30T11:16:29.721Z,8.50
2022-10-30T11:19:04.233Z,13.02
2022-10-30T11:21:38.801Z,10.80
2022-10-30T11:24:26.038Z,10.00
2022-10-30T11:26:55.603Z,13.18
2022-10-30T11:29:31.905Z,13.70
2022-10-30T11:32:04.713Z,9.02
2022-10-30T11:34:33.444Z,12.15
2022-10-30T11:37:01.086Z,10.23
2022-10-30T11:39:33.776Z,12.02
2022-10-30T11:42:04.966Z,10.60
2022-10-30T11:44:44.318Z,8.10
2022-10-30T11:47:13.556Z,10.55
2022-10-30T11:49:45.144Z,11.55
2022-10-30T11:52:17.283Z,7.85
2022-10-30T11:54:48.793Z,9.93
2022-10-30T11:57:25.081Z,10.68
2022-10-30T12:00:05.551Z,9.13
2022-10-30T12:02:45.322Z,10.52
2022-10-30T12:05:32.345Z,7.53
2022-10-30T12:08:08.830Z,10.80
2022-10-30T12:10:55.425Z,8.50
2022-10-30T12:13:24.740Z,8.25
2022-10-30T12:16:20.154Z,9.38
2022-10-30T12:19:00.720Z,10.07
2022-10-30T12:21:35.032Z,8.02
2022-10-30T12:24:10.446Z,8.18
2022-10-30T12:26:45.366Z,8.23
2022-10-30T12:29:36.453Z,8.98
2022-10-30T12:32:23.636Z,7.65
2022-10-30T12:35:36.980Z,7.30
2022-10-30T12:38:14.044Z,7.60
2022-10-30T12:41:03.767Z,9.25
2022-10-30T12:43:35.460Z,6.72
2022-10-30T12:46:28.212Z,7.47
2022-10-30T12:49:23.043Z,5.97
2022-10-30T12:52:15.677Z,9.80
2022-10-30T12:55:00.221Z,8.48
2022-10-30T12:57:42.544Z,8.05
2022-10-30T13:00:18.667Z,10.40
2022-10-30T13:02:51.492Z,7.55
2022-10-30T13:05:46.872Z,10.27
2022-10-30T13:08:19.952Z,6.75
2022-10-30T13:10:53.048Z,12.32
2022-10-30T13:13:29.872Z,8.15
2022-10-30T13:16:01.375Z,8.70
2022-10-30T13:18:33.334Z,12.52
2022-10-30T13:21:25.228Z,11.38
2022-10-30T13:23:58.364Z,7.40
2022-10-30T13:26:39.376Z,8.88
2022-10-30T13:29:12.990Z,12.63
2022-10-30T13:32:05.720Z,7.88
2022-10-30T13:34:52.811Z,10.05
2022-10-30T13:37:47.409Z,6.68
2022-10-30T13:40:41.713Z,8.45
2022-10-30T13:43:43.167Z,11.30
2022-10-30T13:46:19.468Z,7.75
2022-10-30T13:49:31.734Z,9.20
2022-10-30T13:52:21.099Z,7.57
2022-10-30T13:55:08.396Z,9.45
2022-10-30T13:57:47.768Z,10.75
2022-10-30T14:00:20.822Z,7.88
2022-10-30T14:03:23.638Z,8.18
2022-10-30T14:06:22.820Z,6.85
2022-10-30T14:08:56.239Z,9.90
2022-10-30T14:11:28.325Z,10.15
2022-10-30T14:14:28.505Z,9.50
2022-10-30T14:17:16.350Z,7.15
2022-10-30T14:20:13.556Z,10.48
2022-10-30T14:22:42.114Z,10.18
2022-10-30T14:25:17.023Z,7.97
2022-10-30T14:27:55.708Z,12.98
2022-10-30T14:30:23.417Z,10.90
2022-10-30T14:32:54.273Z,11.43
2022-10-30T14:35:41.002Z,12.52
2022-10-30T14:38:11.693Z,25.60
2022-10-30T14:41:02.717Z,32.42
2022-10-30T14:43:51.136Z,34.95
2022-10-30T14:46:42.970Z,37.53
2022-10-30T14:49:39.520Z,73.70
2022-10-30T14:52:44.171Z,41.97
2022-10-30T14:55:35.786Z,29.63
2022-10-30T14:58:03.433Z,28.52
2022-10-30T15:00:45.709Z,26.60
2022-10-30T15:03:16.263Z,37.60
2022-10-30T15:06:04.084Z,35.47
2022-10-30T15:08:47.522Z,19.05
2022-10-30T15:11:24.529Z,24.58
2022-10-30T15:14:00.158Z,68.33
2022-10-30T15:16:30.749Z,59.95
2022-10-30T15:19:06.346Z,71.60
2022-10-30T15:21:41.999Z,29.55
2022-10-30T15:24:19.263Z,44.67
2022-10-30T15:26:53.389Z,45.25
2022-10-30T15:29:29.255Z,62.57
2022-10-30T15:31:59.958Z,20.77
2022-10-30T15:34:34.148Z,9.57
2022-10-30T15:37:16.819Z,12.73
2022-10-30T15:39:44.881Z,9.20
2022-10-30T15:42:13.747Z,11.87
2022-10-30T15:44:44.485Z,11.00
2022-10-30T15:47:21.452Z,15.77
2022-10-30T15:49:52.596Z,13.30
2022-10-30T15:52:31.098Z,24.70
2022-10-30T15:55:02.060Z,16.43
2022-10-30T15:58:03.561Z,13.23
2022-10-30T16:00:36.522Z,12.73
2022-10-30T16:03:17.167Z,11.43
2022-10-30T16:05:44.833Z,10.33
2022-10-30T16:08:21.241Z,11.63
2022-10-30T16:10:52.531Z,11.47
2022-10-30T16:13:25.796Z,13.60
2022-10-30T16:15:55.449Z,14.83
2022-10-30T16:18:36.156Z,14.17
2022-10-30T16:21:07.780Z,13.20
2022-10-30T16:23:46.814Z,14.17
2022-10-30T16:26:40.397Z,25.13
2022-10-30T16:29:13.713Z,25.33
2022-10-30T16:31:43.748Z,27.03
2022-10-30T16:34:18.372Z,21.03
2022-10-30T16:36:46.069Z,24.47
2022-10-30T16:39:17.627Z,41.80
2022-10-30T16:41:46.280Z,68.90
2022-10-30T16:44:14.509Z,55.50
2022-10-30T16:46:52.898Z,47.77
2022-10-30T16:49:24.388Z,35.33
2022-10-30T16:52:06.724Z,40.40
2022-10-30T16:54:38.478Z,39.57
2022-10-30T16:57:27.782Z,38.77
2022-10-30T16:59:58.107Z,39.90
2022-10-30T17:02:32.843Z,38.70
2022-10-30T17:05:31.253Z,75.37
2022-10-30T17:08:02.188Z,74.33
2022-10-30T17:10:37.592Z,60.50
2022-10-30T17:13:56.205Z,41.27
2022-10-30T17:16:26.116Z,34.80
2022-10-30T17:18:55.396Z,31.70
2022-10-30T17:21:29.537Z,24.50
2022-10-30T17:24:00.803Z,25.40
2022-10-30T17:26:32.426Z,29.17
2022-10-30T17:28:59.808Z,27.43
2022-10-30T17:31:39.425Z,25.37
2022-10-30T17:34:21.393Z,42.10
2022-10-30T17:37:01.800Z,32.40
2022-10-30T17:39:35.135Z,28.57
2022-10-30T17:42:16.004Z,30.00
2022-10-30T17:44:46.494Z,44.00
2022-10-30T17:47:19.633Z,31.63
2022-10-30T17:49:53.035Z,40.67
2022-10-30T17:52:25.023Z,52.67
2022-10-30T17:54:53.832Z,59.47
2022-10-30T17:57:28.170Z,43.90
2022-10-30T18:00:02.441Z,49.67
2022-10-30T18:02:32.578Z,51.63
2022-10-30T18:05:00.583Z,43.50
2022-10-30T18:07:28.310Z,44.00
2022-10-30T18:09:55.822Z,49.53
2022-10-30T18:12:28.259Z,44.50
2022-10-30T18:15:00.825Z,39.80
2022-10-30T18:17:31.473Z,36.37
2022-10-30T18:20:02.195Z,36.47
2022-10-30T18:22:29.551Z,33.87
2022-10-30T18:24:56.963Z,28.90
2022-10-30T18:27:27.158Z,26.53
2022-10-30T18:29:54.819Z,27.33
2022-10-30T18:32:26.327Z,23.07
2022-10-30T18:34:56.955Z,19.37
2022-10-30T18:37:25.181Z,21.17
2022-10-30T18:39:55.771Z,30.97
2022-10-30T18:42:26.369Z,31.53
2022-10-30T18:44:53.834Z,37.57
2022-10-30T18:47:21.981Z,36.40
2022-10-30T18:49:50.488Z,28.87
2022-10-30T18:52:17.914Z,27.53
2022-10-30T18:54:45.636Z,29.63
2022-10-30T18:57:13.719Z,28.90
2022-10-30T18:59:41.433Z,26.87
2022-10-30T19:02:25.067Z,27.57
2022-10-30T19:04:52.728Z,28.17
2022-10-30T19:07:20.638Z,29.40
2022-10-30T19:09:51.698Z,25.40
2022-10-30T19:12:19.659Z,26.77
2022-10-30T19:14:49.921Z,25.07
2022-10-30T19:17:17.678Z,25.40
2022-10-30T19:19:45.231Z,27.60
2022-10-30T19:22:19.102Z,30.27
2022-10-30T19:24:46.769Z,28.87
2022-10-30T19:27:15.041Z,29.73
2022-10-30T19:29:42.661Z,28.23
2022-10-30T19:32:10.644Z,24.93
2022-10-30T19:34:38.464Z,29.73
2022-10-30T19:37:06.323Z,27.83
2022-10-30T19:39:34.091Z,24.30
2022-10-30T19:42:01.991Z,36.43
2022-10-30T19:44:29.727Z,30.10
2022-10-30T19:46:57.093Z,32.50
2022-10-30T19:49:25.136Z,30.87
2022-10-30T19:51:52.687Z,26.70
2022-10-30T19:54:20.083Z,30.00
2022-10-30T19:56:47.564Z,28.60
2022-10-30T19:59:16.007Z,30.43
2022-10-30T20:01:45.072Z,31.53
2022-10-30T20:04:13.069Z,35.73
2022-10-30T20:06:40.304Z,37.57
2022-10-30T20:09:11.888Z,41.67
2022-10-30T20:11:39.234Z,38.13
2022-10-30T20:14:06.491Z,36.63
2022-10-30T20:16:35.458Z,30.53
2022-10-30T20:19:04.499Z,22.67
2022-10-30T20:21:31.755Z,20.33
2022-10-30T20:23:59.119Z,15.40
2022-10-30T20:26:29.827Z,24.83
2022-10-30T20:28:57.739Z,17.87
2022-10-30T20:31:25.143Z,12.70
2022-10-30T20:33:52.357Z,15.53
2022-10-30T20:36:19.635Z,15.53
2022-10-30T20:38:47.286Z,12.93
2022-10-30T20:41:23.905Z,11.73
2022-10-30T20:43:51.828Z,13.17
2022-10-30T20:46:19.683Z,14.77
2022-10-30T20:48:47.693Z,17.77
2022-10-30T20:51:15.261Z,18.30
2022-10-30T20:53:42.634Z,14.23
2022-10-30T20:56:11.527Z,10.93
2022-10-30T20:58:39.166Z,9.13
2022-10-30T21:01:06.754Z,10.17
2022-10-30T21:03:34.304Z,9.73
2022-10-30T21:06:02.405Z,12.53
2022-10-30T21:08:34.614Z,17.70
2022-10-30T21:11:04.445Z,20.17
2022-10-30T21:13:34.421Z,20.23
2022-10-30T21:16:04.355Z,18.93
2022-10-30T21:18:32.852Z,19.63
2022-10-30T21:21:08.708Z,24.33
2022-10-30T21:23:36.062Z,22.47
2022-10-30T21:26:10.004Z,26.90
2022-10-30T21:28:37.486Z,19.10
2022-10-30T21:31:08.037Z,19.80
2022-10-30T21:33:38.598Z,19.47
2022-10-30T21:36:14.898Z,17.13
2022-10-30T21:38:43.811Z,19.50
2022-10-30T21:41:16.684Z,35.80
2022-10-30T21:43:48.913Z,20.73
2022-10-30T21:46:16.213Z,22.40
2022-10-30T21:48:43.731Z,18.77
2022-10-30T21:51:14.926Z,17.87
2022-10-30T21:53:43.335Z,20.57
2022-10-30T21:56:13.385Z,19.37
2022-10-30T21:58:41.458Z,21.83
2022-10-30T22:01:15.570Z,32.97
2022-10-30T22:03:43.441Z,22.90
2022-10-30T22:06:13.271Z,23.43
2022-10-30T22:08:41.193Z,21.63
2022-10-30T22:11:10.986Z,21.43
2022-10-30T22:13:38.850Z,21.13
2022-10-30T22:16:08.499Z,21.90
2022-10-30T22:18:36.072Z,23.00
2022-10-30T22:21:06.817Z,21.47
2022-10-30T22:23:36.204Z,21.90
2022-10-30T22:26:07.050Z,24.93
2022-10-30T22:28:35.588Z,21.27
2022-10-30T22:31:08.016Z,24.20
2022-10-30T22:33:35.887Z,24.97
2022-10-30T22:36:13.198Z,23.57
2022-10-30T22:38:40.551Z,17.30
2022-10-30T22:41:12.007Z,18.13
2022-10-30T22:43:40.842Z,21.10
2022-10-30T22:46:08.557Z,23.13
2022-10-30T22:48:35.906Z,21.03
2022-10-30T22:51:07.091Z,22.90
2022-10-30T22:53:37.947Z,24.67
2022-10-30T22:56:32.530Z,18.30
2022-10-30T22:59:10.308Z,23.23
2022-10-30T23:01:39.499Z,19.40
2022-10-30T23:04:07.955Z,25.17
2022-10-30T23:06:36.284Z,27.23
2022-10-30T23:09:07.631Z,26.73
2022-10-30T23:11:35.399Z,22.97
2022-10-30T23:14:03.091Z,19.47
2022-10-30T23:16:30.610Z,37.53
2022-10-30T23:18:59.873Z,23.47
2022-10-30T23:21:31.723Z,23.13
2022-10-30T23:24:00.057Z,26.53
2022-10-30T23:26:30.907Z,22.40
2022-10-30T23:29:00.232Z,23.03
2022-10-30T23:31:53.603Z,21.67
2022-10-30T23:34:21.069Z,22.77
2022-10-30T23:36:48.471Z,25.10
2022-10-30T23:39:17.938Z,24.93
2022-10-30T23:41:45.642Z,23.50
2022-10-30T23:44:14.946Z,24.00
2022-10-30T23:46:42.394Z,25.93
2022-10-30T23:49:09.706Z,23.53
2022-10-30T23:51:36.967Z,30.60
2022-10-30T23:54:04.375Z,29.90
2022-10-30T23:56:31.851Z,29.90
2022-10-30T23:58:59.126Z,29.10
